Peotone Weather
Station Historical Data
 
Daily Summary for October 01, 2014 Units:  English    Metric   Both
« Previous Day
Next Day »
Daily Weekly Monthly Yearly Custom
  Current: High: Low: Average:
Temperature: 71.9 °F 72.8 °F 44.5 °F 54.5 °F
Dew Point: 58.2 °F 59.0 °F 42.6 °F 49 °F
Humidity: 62% 95% 61% 83%
Wind Speed: 6.9mph 13.8mph 0.0mph 2.9mph
Wind Gust: 17.2mph 17.2mph - -
WindSE - - ESE
Pressure: 29.90 in 30.03 in 29.90 in -
Precipitation: 0.00 in      
Historical Graphs
 
 
Tabular Data for October 01, 2014
Time Temperature Dew Point Pressure Wind Wind Speed Wind Gust Humidity Rainfall Rate (Hourly) solar Conditions
00:00 48.6 °F 45.8 °F 30.00 in ENE 3.5 mph 5.8 mph 90% 0.00 in 0.00 W/m2
00:04 48.5 °F 45.7 °F 30.00 in ENE 2.3 mph 4.6 mph 90% 0.00 in 0.00 W/m2
00:05 48.5 °F 45.7 °F 30.00 in ENE 3.4 mph 4.6 mph 90% 0.00 in 0.00 W/m2
00:10 48.3 °F 45.5 °F 30.00 in ENE 1.1 mph 5.8 mph 90% 0.00 in 0.00 W/m2
00:11 48.3 °F 45.5 °F 30.00 in Calm   5.8 mph 90% 0.00 in 0.00 W/m2
00:15 48.1 °F 45.3 °F 30.01 in ENE 2.3 mph 5.8 mph 90% 0.00 in 0.00 W/m2
00:16 48.1 °F 45.3 °F 30.01 in ENE 2.3 mph 5.8 mph 90% 0.00 in 0.00 W/m2
00:20 47.8 °F 45.0 °F 30.01 in ENE 1.1 mph 4.6 mph 90% 0.00 in 0.00 W/m2
00:21 47.8 °F 45.0 °F 30.01 in ENE 1.1 mph 4.6 mph 90% 0.00 in 0.00 W/m2
00:22 47.8 °F 45.3 °F 30.01 in Calm   2.3 mph 91% 0.00 in 0.00 W/m2
00:25 47.7 °F 45.2 °F 30.01 in ENE 4.6 mph 4.6 mph 91% 0.00 in 0.00 W/m2
00:26 47.7 °F 45.2 °F 30.01 in ENE 4.6 mph 4.6 mph 91% 0.00 in 0.00 W/m2
00:27 47.7 °F 44.9 °F 30.01 in ENE 1.1 mph 4.6 mph 90% 0.00 in 0.00 W/m2
00:30 47.6 °F 45.1 °F 30.01 in ENE 2.3 mph 4.6 mph 91% 0.00 in 0.00 W/m2
00:31 47.6 °F 45.1 °F 30.01 in ENE 1.1 mph 2.3 mph 91% 0.00 in 0.00 W/m2
00:32 47.6 °F 45.1 °F 30.01 in ENE 1.1 mph 2.3 mph 91% 0.00 in 0.00 W/m2
00:35 47.5 °F 45.0 °F 30.01 in ENE 1.1 mph 3.5 mph 91% 0.00 in 0.00 W/m2
00:36 47.4 °F 44.9 °F 30.01 in Calm   2.3 mph 91% 0.00 in 0.00 W/m2
00:37 47.4 °F 44.9 °F 30.01 in Calm   2.3 mph 91% 0.00 in 0.00 W/m2
00:40 47.4 °F 44.9 °F 30.01 in Calm   2.3 mph 91% 0.00 in 0.00 W/m2
00:41 47.4 °F 44.9 °F 30.01 in Calm     91% 0.00 in 0.00 W/m2
00:42 47.4 °F 44.9 °F 30.01 in Calm   2.3 mph 91% 0.00 in 0.00 W/m2
00:43 47.4 °F 44.9 °F 30.01 in Calm   2.3 mph 91% 0.00 in 0.00 W/m2
00:45 47.4 °F 44.9 °F 30.01 in Calm   3.5 mph 91% 0.00 in 0.00 W/m2
00:47 47.3 °F 44.8 °F 30.01 in Calm   3.4 mph 91% 0.00 in 0.00 W/m2
00:48 47.2 °F 44.7 °F 30.01 in ENE 1.1 mph 3.4 mph 91% 0.00 in 0.00 W/m2
00:50 47.1 °F 44.6 °F 30.01 in ENE 1.1 mph 3.5 mph 91% 0.00 in 0.00 W/m2
00:51 47.1 °F 44.6 °F 30.01 in ENE 1.1 mph 3.4 mph 91% 0.00 in 0.00 W/m2
00:53 47.0 °F 44.5 °F 30.01 in Calm   3.4 mph 91% 0.00 in 0.00 W/m2
00:54 47.0 °F 44.5 °F 30.01 in Calm   3.4 mph 91% 0.00 in 0.00 W/m2
00:55 46.9 °F 44.4 °F 30.01 in ENE 1.1 mph 3.5 mph 91% 0.00 in 0.00 W/m2
00:58 46.8 °F 44.3 °F 30.01 in Calm   3.4 mph 91% 0.00 in 0.00 W/m2
00:59 46.8 °F 44.3 °F 30.01 in Calm   3.4 mph 91% 0.00 in 0.00 W/m2
01:00 46.8 °F 44.3 °F 30.01 in ENE 2.3 mph 3.5 mph 91% 0.00 in 0.00 W/m2
01:03 46.7 °F 44.2 °F 30.00 in Calm   3.4 mph 91% 0.00 in 0.00 W/m2
01:04 46.7 °F 44.2 °F 30.00 in Calm   3.4 mph 91% 0.00 in 0.00 W/m2
01:05 46.7 °F 44.5 °F 30.00 in ENE 1.1 mph 3.5 mph 92% 0.00 in 0.00 W/m2
01:09 46.7 °F 44.5 °F 30.00 in Calm   2.3 mph 92% 0.00 in 0.00 W/m2
01:10 46.8 °F 44.6 °F 30.00 in ENE 2.3 mph 3.5 mph 92% 0.00 in 0.00 W/m2
01:14 46.7 °F 44.5 °F 30.00 in ENE 2.3 mph 2.3 mph 92% 0.00 in 0.00 W/m2
01:15 46.8 °F 44.6 °F 30.00 in ENE 1.1 mph 2.3 mph 92% 0.00 in 0.00 W/m2
01:19 46.7 °F 44.5 °F 30.00 in ENE 1.1 mph 3.4 mph 92% 0.00 in 0.00 W/m2
01:20 46.7 °F 44.5 °F 30.00 in ENE 2.3 mph 3.4 mph 92% 0.00 in 0.00 W/m2
01:21 46.7 °F 44.5 °F 30.00 in Calm   3.4 mph 92% 0.00 in 0.00 W/m2
01:25 46.7 °F 44.5 °F 30.00 in ENE 1.1 mph 3.4 mph 92% 0.00 in 0.00 W/m2
01:26 46.6 °F 44.4 °F 30.00 in Calm   3.4 mph 92% 0.00 in 0.00 W/m2
01:30 46.6 °F 44.4 °F 30.00 in Calm   3.4 mph 92% 0.00 in 0.00 W/m2
01:31 46.6 °F 44.4 °F 30.00 in Calm   1.1 mph 92% 0.00 in 0.00 W/m2
01:35 46.7 °F 44.5 °F 30.00 in Calm   4.6 mph 92% 0.00 in 0.00 W/m2
01:36 46.7 °F 44.5 °F 30.00 in Calm   4.6 mph 92% 0.00 in 0.00 W/m2
01:37 46.7 °F 44.8 °F 30.00 in Calm   4.6 mph 93% 0.00 in 0.00 W/m2
01:40 46.7 °F 44.5 °F 30.00 in Calm   4.6 mph 92% 0.00 in 0.00 W/m2
01:42 46.7 °F 44.8 °F 30.00 in ENE 1.1 mph 1.1 mph 93% 0.00 in 0.00 W/m2
01:43 46.8 °F 44.9 °F 30.00 in ENE 1.1 mph 2.3 mph 93% 0.00 in 0.00 W/m2
01:45 46.7 °F 44.5 °F 30.00 in Calm   2.3 mph 92% 0.00 in 0.00 W/m2
01:47 46.6 °F 44.4 °F 30.00 in Calm     92% 0.00 in 0.00 W/m2
01:48 46.5 °F 44.3 °F 30.00 in Calm     92% 0.00 in 0.00 W/m2
01:49 46.5 °F 44.3 °F 30.00 in ENE 1.1 mph 1.1 mph 92% 0.00 in 0.00 W/m2
01:50 46.4 °F 44.2 °F 30.00 in ENE 1.1 mph 1.1 mph 92% 0.00 in 0.00 W/m2
01:53 46.4 °F 44.2 °F 30.00 in Calm   2.3 mph 92% 0.00 in 0.00 W/m2
01:54 46.3 °F 44.1 °F 30.00 in Calm   2.3 mph 92% 0.00 in 0.00 W/m2
01:55 46.2 °F 44.0 °F 30.00 in ENE 3.5 mph 3.5 mph 92% 0.00 in 0.00 W/m2
01:58 46.2 °F 44.3 °F 30.00 in ENE 1.1 mph 5.8 mph 93% 0.00 in 0.00 W/m2
01:59 46.2 °F 44.3 °F 30.00 in ENE 2.3 mph 5.8 mph 93% 0.00 in 0.00 W/m2
02:00 46.2 °F 44.3 °F 30.00 in ENE 1.1 mph 5.8 mph 93% 0.00 in 0.00 W/m2
02:04 46.1 °F 44.2 °F 30.00 in ENE 1.1 mph 2.3 mph 93% 0.00 in 0.00 W/m2
02:05 46.1 °F 44.2 °F 30.00 in ENE 1.1 mph 2.3 mph 93% 0.00 in 0.00 W/m2
02:06 46.1 °F 44.2 °F 30.00 in Calm   2.3 mph 93% 0.00 in 0.00 W/m2
02:09 45.9 °F 44.0 °F 30.00 in ENE 1.1 mph 2.3 mph 93% 0.00 in 0.00 W/m2
02:10 45.9 °F 43.7 °F 30.00 in Calm   2.3 mph 92% 0.00 in 0.00 W/m2
02:11 45.8 °F 43.9 °F 30.00 in Calm     93% 0.00 in 0.00 W/m2
02:12 45.8 °F 43.9 °F 30.00 in Calm     93% 0.00 in 0.00 W/m2
02:15 45.7 °F 43.8 °F 30.00 in ENE 1.1 mph 1.1 mph 93% 0.00 in 0.00 W/m2
02:16 45.7 °F 43.8 °F 30.00 in Calm   1.1 mph 93% 0.00 in 0.00 W/m2
02:17 45.6 °F 43.7 °F 30.00 in ENE 2.3 mph 2.3 mph 93% 0.00 in 0.00 W/m2
02:20 45.5 °F 43.6 °F 30.00 in ENE 2.3 mph 2.3 mph 93% 0.00 in 0.00 W/m2
02:22 45.6 °F 43.7 °F 30.00 in Calm   2.3 mph 93% 0.00 in 0.00 W/m2
02:25 45.6 °F 43.7 °F 30.00 in Calm   2.3 mph 93% 0.00 in 0.00 W/m2
02:27 45.6 °F 43.7 °F 30.00 in Calm     93% 0.00 in 0.00 W/m2
02:28 45.6 °F 43.7 °F 30.00 in Calm     93% 0.00 in 0.00 W/m2
02:30 45.4 °F 43.5 °F 30.00 in Calm     93% 0.00 in 0.00 W/m2
02:32 45.4 °F 43.5 °F 30.00 in Calm     93% 0.00 in 0.00 W/m2
02:34 45.2 °F 43.3 °F 30.00 in Calm     93% 0.00 in 0.00 W/m2
02:35 45.1 °F 43.2 °F 30.00 in Calm   1.1 mph 93% 0.00 in 0.00 W/m2
02:38 45.1 °F 43.2 °F 30.00 in Calm     93% 0.00 in 0.00 W/m2
02:39 45.1 °F 43.2 °F 30.00 in Calm     93% 0.00 in 0.00 W/m2
02:40 45.0 °F 43.1 °F 30.00 in Calm     93% 0.00 in 0.00 W/m2
02:43 44.8 °F 42.9 °F 30.00 in Calm     93% 0.00 in 0.00 W/m2
02:45 44.7 °F 42.8 °F 30.00 in ENE 1.1 mph 1.1 mph 93% 0.00 in 0.00 W/m2
02:46 44.7 °F 42.8 °F 30.00 in Calm   1.1 mph 93% 0.00 in 0.00 W/m2
02:48 44.7 °F 42.8 °F 30.00 in Calm   1.1 mph 93% 0.00 in 0.00 W/m2
02:49 44.7 °F 42.8 °F 30.00 in Calm   1.1 mph 93% 0.00 in 0.00 W/m2
02:50 44.5 °F 42.6 °F 30.00 in Calm   1.1 mph 93% 0.00 in 0.00 W/m2
02:52 44.6 °F 43.0 °F 30.00 in Calm   1.1 mph 94% 0.00 in 0.00 W/m2
02:53 44.7 °F 43.1 °F 30.00 in Calm   1.1 mph 94% 0.00 in 0.00 W/m2
02:54 44.8 °F 43.2 °F 30.00 in Calm   1.1 mph 94% 0.00 in 0.00 W/m2
02:55 44.9 °F 43.3 °F 30.00 in Calm   1.1 mph 94% 0.00 in 0.00 W/m2
02:58 44.9 °F 43.3 °F 30.00 in Calm   1.1 mph 94% 0.00 in 0.00 W/m2
02:59 44.9 °F 43.3 °F 30.00 in Calm   1.1 mph 94% 0.00 in 0.00 W/m2
03:00 44.9 °F 43.3 °F 30.00 in Calm   1.1 mph 94% 0.00 in 0.00 W/m2
03:01 44.9 °F 43.3 °F 30.00 in Calm   1.1 mph 94% 0.00 in 0.00 W/m2
03:04 44.8 °F 43.2 °F 30.00 in Calm   1.1 mph 94% 0.00 in 0.00 W/m2
03:05 44.7 °F 43.1 °F 30.00 in Calm   1.1 mph 94% 0.00 in 0.00 W/m2
03:07 44.7 °F 43.1 °F 30.00 in Calm     94% 0.00 in 0.00 W/m2
03:09 44.7 °F 43.1 °F 30.00 in Calm   1.1 mph 94% 0.00 in 0.00 W/m2
03:10 44.7 °F 43.1 °F 30.00 in Calm   1.1 mph 94% 0.00 in 0.00 W/m2
03:12 44.8 °F 43.2 °F 30.00 in Calm     94% 0.00 in 0.00 W/m2
03:14 44.8 °F 43.2 °F 30.00 in Calm     94% 0.00 in 0.00 W/m2
03:15 44.9 °F 43.3 °F 30.00 in Calm     94% 0.00 in 0.00 W/m2
03:17 45.0 °F 43.4 °F 30.00 in Calm     94% 0.00 in 0.00 W/m2
03:20 45.0 °F 43.4 °F 30.00 in Calm     94% 0.00 in 0.00 W/m2
03:21 45.0 °F 43.4 °F 30.00 in Calm     94% 0.00 in 0.00 W/m2
03:22 45.0 °F 43.4 °F 30.00 in Calm     94% 0.00 in 0.00 W/m2
03:25 44.9 °F 43.3 °F 30.00 in Calm   1.1 mph 94% 0.00 in 0.00 W/m2
03:26 44.7 °F 43.1 °F 30.00 in ENE 1.1 mph 1.1 mph 94% 0.00 in 0.00 W/m2
03:28 44.7 °F 43.1 °F 30.00 in Calm   1.1 mph 94% 0.00 in 0.00 W/m2
03:30 44.7 °F 43.1 °F 30.00 in ENE 3.5 mph 3.5 mph 94% 0.00 in 0.00 W/m2
03:31 44.7 °F 43.1 °F 30.00 in ENE 3.4 mph 3.4 mph 94% 0.00 in 0.00 W/m2
03:33 44.8 °F 43.2 °F 30.00 in Calm   4.6 mph 94% 0.00 in 0.00 W/m2
03:35 44.9 °F 43.3 °F 30.00 in Calm   5.8 mph 94% 0.00 in 0.00 W/m2
03:36 45.0 °F 43.4 °F 30.00 in Calm     94% 0.00 in 0.00 W/m2
03:37 45.0 °F 43.7 °F 30.00 in ENE 1.1 mph 1.1 mph 95% 0.00 in 0.00 W/m2
03:39 45.2 °F 43.9 °F 30.00 in Calm   1.1 mph 95% 0.00 in 0.00 W/m2
03:40 45.2 °F 43.9 °F 30.00 in Calm   1.1 mph 95% 0.00 in 0.00 W/m2
03:41 45.2 °F 43.9 °F 30.00 in Calm     95% 0.00 in 0.00 W/m2
03:42 45.1 °F 43.5 °F 30.00 in Calm     94% 0.00 in 0.00 W/m2
03:44 45.1 °F 43.5 °F 30.00 in Calm   1.1 mph 94% 0.00 in 0.00 W/m2
03:45 45.0 °F 43.4 °F 30.00 in ENE 1.1 mph 3.5 mph 94% 0.00 in 0.00 W/m2
03:47 44.9 °F 43.3 °F 30.00 in Calm   4.6 mph 94% 0.00 in 0.00 W/m2
03:49 45.2 °F 43.9 °F 30.00 in ENE 1.1 mph 4.6 mph 95% 0.00 in 0.00 W/m2
03:50 45.2 °F 43.9 °F 30.00 in ENE 1.1 mph 4.6 mph 95% 0.00 in 0.00 W/m2
03:52 45.3 °F 44.0 °F 30.00 in Calm   1.1 mph 95% 0.00 in 0.00 W/m2
03:53 45.3 °F 44.0 °F 30.00 in Calm   1.1 mph 95% 0.00 in 0.00 W/m2
03:55 45.2 °F 43.9 °F 30.00 in Calm   2.3 mph 95% 0.00 in 0.00 W/m2
03:58 45.2 °F 43.6 °F 30.00 in Calm   3.4 mph 94% 0.00 in 0.00 W/m2
04:00 45.3 °F 44.0 °F 30.00 in ENE 2.3 mph 3.4 mph 95% 0.00 in 0.00 W/m2
04:03 45.4 °F 44.0 °F 30.00 in Calm   4.6 mph 95% 0.00 in 0.00 W/m2
04:04 45.4 °F 44.0 °F 30.00 in ENE 3.4 mph 4.6 mph 95% 0.00 in 0.00 W/m2
04:05 45.5 °F 44.2 °F 30.00 in ENE 2.3 mph 8.1 mph 95% 0.00 in 0.00 W/m2
04:10 45.6 °F 44.2 °F 30.00 in ENE 1.1 mph 3.4 mph 95% 0.00 in 0.00 W/m2
04:15 45.6 °F 44.2 °F 30.00 in ENE 1.1 mph 3.4 mph 95% 0.00 in 0.00 W/m2
04:20 45.4 °F 44.0 °F 30.00 in ENE 1.1 mph 2.3 mph 95% 0.00 in 0.00 W/m2
04:25 45.2 °F 43.9 °F 30.00 in ENE 1.1 mph 3.4 mph 95% 0.00 in 0.00 W/m2
04:30 45.3 °F 44.0 °F 30.00 in ENE 1.1 mph 3.4 mph 95% 0.00 in 0.00 W/m2
04:35 45.3 °F 44.0 °F 30.00 in ENE 1.1 mph 3.4 mph 95% 0.00 in 0.00 W/m2
04:40 45.4 °F 44.0 °F 30.00 in ENE 1.1 mph 3.4 mph 95% 0.00 in 0.00 W/m2
04:45 45.2 °F 43.9 °F 30.00 in Calm   3.4 mph 95% 0.00 in 0.00 W/m2
04:50 45.1 °F 43.8 °F 30.00 in ENE 2.3 mph 4.6 mph 95% 0.00 in 0.00 W/m2
04:55 45.1 °F 43.8 °F 30.00 in ENE 2.3 mph 4.6 mph 95% 0.00 in 0.00 W/m2
05:00 45.1 °F 43.8 °F 30.00 in ENE 2.3 mph 3.4 mph 95% 0.00 in 0.00 W/m2
05:05 45.3 °F 44.0 °F 30.00 in ENE 1.1 mph 4.6 mph 95% 0.00 in 0.00 W/m2
05:10 45.4 °F 44.0 °F 30.00 in ENE 1.1 mph 3.4 mph 95% 0.00 in 0.00 W/m2
05:15 45.5 °F 44.2 °F 30.00 in ENE 2.3 mph 5.8 mph 95% 0.00 in 0.00 W/m2
05:20 45.5 °F 44.2 °F 30.00 in ENE 2.3 mph 5.8 mph 95% 0.00 in 0.00 W/m2
05:25 45.5 °F 44.2 °F 30.00 in ENE 1.1 mph 5.8 mph 95% 0.00 in 0.00 W/m2
05:30 45.6 °F 44.2 °F 30.00 in ENE 2.3 mph 4.6 mph 95% 0.00 in 0.00 W/m2
05:35 45.8 °F 44.5 °F 30.00 in ENE 2.3 mph 5.8 mph 95% 0.00 in 0.00 W/m2
05:40 46.0 °F 44.7 °F 30.00 in ENE 1.1 mph 4.6 mph 95% 0.00 in 0.00 W/m2
05:45 46.1 °F 44.8 °F 30.00 in ENE 1.1 mph 3.4 mph 95% 0.00 in 0.00 W/m2
05:50 46.1 °F 44.8 °F 30.00 in ENE 1.1 mph 3.4 mph 95% 0.00 in 0.00 W/m2
05:55 46.1 °F 44.8 °F 30.00 in ENE 1.1 mph 4.6 mph 95% 0.00 in 0.00 W/m2
06:00 46.1 °F 44.8 °F 30.01 in ENE 1.1 mph 4.6 mph 95% 0.00 in 0.00 W/m2
06:05 46.1 °F 44.8 °F 30.01 in Calm   2.3 mph 95% 0.00 in 0.00 W/m2
06:10 46.0 °F 44.7 °F 30.01 in ENE 1.1 mph 4.6 mph 95% 0.00 in 0.00 W/m2
06:15 46.0 °F 44.7 °F 30.01 in ENE 1.1 mph 3.4 mph 95% 0.00 in 0.00 W/m2
06:20 45.9 °F 44.5 °F 30.01 in ENE 1.1 mph 4.6 mph 95% 0.00 in 0.00 W/m2
06:25 46.0 °F 44.7 °F 30.01 in ENE 1.1 mph 6.9 mph 95% 0.00 in 0.00 W/m2
06:30 46.0 °F 44.7 °F 30.01 in East 1.1 mph 6.9 mph 95% 0.00 in 0.00 W/m2
06:35 46.0 °F 44.7 °F 30.01 in ENE 1.1 mph 4.6 mph 95% 0.00 in 0.00 W/m2
06:40 46.0 °F 44.7 °F 30.01 in ENE 2.3 mph 4.6 mph 95% 0.00 in 0.00 W/m2
06:45 46.0 °F 44.7 °F 30.01 in ENE 2.3 mph 5.8 mph 95% 0.00 in 0.00 W/m2
06:50 45.9 °F 44.5 °F 30.01 in East 1.1 mph 6.9 mph 95% 0.00 in 3.00 W/m2
06:55 46.0 °F 44.7 °F 30.01 in East 1.1 mph 5.8 mph 95% 0.00 in 6.00 W/m2
07:00 46.1 °F 44.8 °F 30.01 in East 2.3 mph 6.9 mph 95% 0.00 in 9.00 W/m2
07:05 46.2 °F 44.8 °F 30.01 in East 2.3 mph 6.9 mph 95% 0.00 in 12.00 W/m2
07:10 46.3 °F 45.0 °F 30.01 in ESE 2.3 mph 5.8 mph 95% 0.00 in 15.00 W/m2
07:15 46.4 °F 45.0 °F 30.01 in ESE 2.3 mph 9.2 mph 95% 0.00 in 19.00 W/m2
07:20 46.6 °F 45.2 °F 30.01 in ENE 1.1 mph 9.2 mph 95% 0.00 in 22.00 W/m2
07:25 46.7 °F 45.3 °F 30.01 in ENE 2.3 mph 6.9 mph 95% 0.00 in 24.00 W/m2
07:30 46.9 °F 45.5 °F 30.01 in ESE 2.3 mph 8.1 mph 95% 0.00 in 26.00 W/m2
07:35 47.0 °F 45.7 °F 30.01 in ESE 2.3 mph 9.2 mph 95% 0.00 in 29.00 W/m2
07:40 47.3 °F 45.9 °F 30.01 in East 2.3 mph 6.9 mph 95% 0.00 in 32.00 W/m2
07:45 47.6 °F 46.2 °F 30.01 in East 2.3 mph 6.9 mph 95% 0.00 in 36.00 W/m2
07:50 47.8 °F 46.4 °F 30.01 in East 2.3 mph 8.1 mph 95% 0.00 in 40.00 W/m2
07:55 48.2 °F 46.8 °F 30.01 in ESE 2.3 mph 5.8 mph 95% 0.00 in 60.00 W/m2
08:00 48.5 °F 46.9 °F 30.01 in ESE 3.4 mph 8.1 mph 94% 0.00 in 61.00 W/m2
08:05 48.9 °F 47.2 °F 30.01 in ESE 3.4 mph 8.1 mph 94% 0.00 in 66.00 W/m2
08:10 49.3 °F 47.7 °F 30.01 in ESE 3.4 mph 10.3 mph 94% 0.00 in 158.00 W/m2
08:15 49.7 °F 48.0 °F 30.02 in ESE 2.3 mph 9.2 mph 94% 0.00 in 187.00 W/m2
08:20 50.1 °F 48.4 °F 30.01 in ESE 4.6 mph 10.3 mph 94% 0.00 in 202.00 W/m2
08:25 50.6 °F 48.7 °F 30.01 in ESE 4.6 mph 11.5 mph 93% 0.00 in 217.00 W/m2
08:30 51.1 °F 48.9 °F 30.02 in ESE 3.4 mph 12.6 mph 92% 0.00 in 230.00 W/m2
08:35 51.6 °F 49.4 °F 30.02 in ESE 5.8 mph 12.6 mph 92% 0.00 in 244.00 W/m2
08:40 51.9 °F 49.4 °F 30.02 in ESE 4.6 mph 9.2 mph 91% 0.00 in 256.00 W/m2
08:45 52.4 °F 49.6 °F 30.02 in ESE 6.9 mph 13.8 mph 90% 0.00 in 270.00 W/m2
08:50 52.9 °F 50.0 °F 30.03 in ESE 3.4 mph 9.2 mph 90% 0.00 in 283.00 W/m2
08:55 53.5 °F 50.3 °F 30.03 in ESE 2.3 mph 9.2 mph 89% 0.00 in 299.00 W/m2
09:00 54.0 °F 50.8 °F 30.03 in SE 4.6 mph 11.5 mph 89% 0.00 in 317.00 W/m2
09:05 54.3 °F 50.5 °F 30.03 in ESE 5.8 mph 11.5 mph 87% 0.00 in 331.00 W/m2
09:10 54.6 °F 50.8 °F 30.03 in SSE 2.3 mph 8.1 mph 87% 0.00 in 347.00 W/m2
09:15 55.1 °F 51.0 °F 30.03 in SE 3.4 mph 11.5 mph 86% 0.00 in 355.00 W/m2
09:20 55.3 °F 50.9 °F 30.02 in ESE 5.8 mph 10.3 mph 85% 0.00 in 366.00 W/m2
09:25 55.7 °F 51.0 °F 30.03 in SE 4.6 mph 13.8 mph 84% 0.00 in 381.00 W/m2
09:30 56.1 °F 51.3 °F 30.03 in SE 5.8 mph 12.6 mph 84% 0.00 in 394.00 W/m2
09:35 56.7 °F 51.9 °F 30.03 in SE 4.6 mph 10.3 mph 84% 0.00 in 406.00 W/m2
09:40 57.1 °F 52.0 °F 30.03 in SE 6.9 mph 11.5 mph 83% 0.00 in 418.00 W/m2
09:45 57.1 °F 51.3 °F 30.02 in ESE 5.8 mph 11.5 mph 81% 0.00 in 429.00 W/m2
09:50 57.3 °F 51.9 °F 30.03 in SE 5.8 mph 12.6 mph 82% 0.00 in 443.00 W/m2
09:55 58.1 °F 52.3 °F 30.03 in SSE 5.8 mph 10.3 mph 81% 0.00 in 450.00 W/m2
10:00 58.5 °F 52.0 °F 30.02 in SE 6.9 mph 12.6 mph 79% 0.00 in 459.00 W/m2
10:05 59.3 °F 53.1 °F 30.02 in South 5.8 mph 12.6 mph 80% 0.00 in 476.00 W/m2
10:10 59.6 °F 52.7 °F 30.02 in SE 6.9 mph 12.6 mph 78% 0.00 in 439.00 W/m2
10:15 59.6 °F 52.4 °F 30.02 in SE 6.9 mph 11.5 mph 77% 0.00 in 499.00 W/m2
10:20 60.1 °F 52.9 °F 30.02 in SSE 4.6 mph 12.6 mph 77% 0.00 in 501.00 W/m2
10:25 60.0 °F 53.1 °F 30.02 in SE 5.8 mph 14.9 mph 78% 0.00 in 445.00 W/m2
10:30 60.4 °F 52.8 °F 30.02 in SE 3.4 mph 10.3 mph 76% 0.00 in 497.00 W/m2
10:42 60.4 °F 52.8 °F 30.02 in SE 5.8 mph 12.6 mph 76% 0.00 in 224.00 W/m2
10:47 60.9 °F 53.3 °F 30.01 in ENE 8.1 mph 8.1 mph 76% 0.00 in 95.00 W/m2
10:49 61.2 °F 53.2 °F 30.01 in ESE 4.6 mph 10.3 mph 75% 0.00 in 93.00 W/m2
10:52 61.6 °F 53.6 °F 30.01 in SE 1.1 mph 11.5 mph 75% 0.00 in 243.00 W/m2
10:56 61.8 °F 53.8 °F 30.01 in SE 6.9 mph 13.8 mph 75% 0.00 in 432.00 W/m2
10:57 62.1 °F 54.5 °F 30.01 in ESE 8.1 mph 11.5 mph 76% 0.00 in 388.00 W/m2
10:58 62.2 °F 54.5 °F 30.01 in ESE 5.8 mph 11.5 mph 76% 0.00 in 388.00 W/m2
11:03 62.2 °F 53.5 °F 30.01 in SE 2.3 mph 9.2 mph 73% 0.00 in 97.00 W/m2
11:08 62.2 °F 53.5 °F 30.01 in East 9.2 mph 10.3 mph 73% 0.00 in 93.00 W/m2
11:13 62.4 °F 53.3 °F 30.01 in ESE 4.6 mph 13.8 mph 72% 0.00 in 109.00 W/m2
11:14 62.3 °F 52.8 °F 30.01 in East 5.8 mph 13.8 mph 71% 0.00 in 95.00 W/m2
11:19 62.6 °F 53.5 °F 30.00 in SSE 2.3 mph 13.8 mph 72% 0.00 in 111.00 W/m2
11:20 62.6 °F 53.5 °F 30.00 in ESE 10.3 mph 13.8 mph 72% 0.00 in 156.00 W/m2
11:24 62.9 °F 53.8 °F 30.00 in Calm   6.9 mph 72% 0.00 in 186.00 W/m2
11:25 62.9 °F 53.8 °F 30.00 in SE 4.6 mph 9.2 mph 72% 0.00 in 383.00 W/m2
11:29 63.6 °F 54.4 °F 30.00 in SE 10.3 mph 10.3 mph 72% 0.00 in 125.00 W/m2
11:30 63.8 °F 54.6 °F 30.00 in SE 3.4 mph 10.3 mph 72% 0.00 in 125.00 W/m2
11:31 63.9 °F 54.3 °F 30.00 in East 6.9 mph 10.3 mph 71% 0.00 in 489.00 W/m2
11:34 64.0 °F 54.0 °F 30.00 in SSE 4.6 mph 10.3 mph 70% 0.00 in 612.00 W/m2
11:35 64.0 °F 54.4 °F 30.00 in SE 5.8 mph 10.3 mph 71% 0.00 in 434.00 W/m2
11:37 64.1 °F 54.5 °F 30.00 in SE 3.4 mph 9.2 mph 71% 0.00 in 297.00 W/m2
11:39 64.3 °F 55.1 °F 30.00 in SE 8.1 mph 10.3 mph 72% 0.00 in 330.00 W/m2
11:40 64.4 °F 54.8 °F 30.00 in SE 2.3 mph 10.3 mph 71% 0.00 in 330.00 W/m2
11:42 64.7 °F 54.7 °F 30.00 in SE 2.3 mph 6.9 mph 70% 0.00 in 172.00 W/m2
11:46 65.0 °F 54.6 °F 30.00 in ESE 8.1 mph 9.2 mph 69% 0.00 in 396.00 W/m2
11:49 64.9 °F 54.5 °F 30.00 in ESE 5.8 mph 10.3 mph 69% 0.00 in 657.00 W/m2
11:51 64.8 °F 54.0 °F 29.99 in ESE 5.8 mph 10.3 mph 68% 0.00 in 657.00 W/m2
11:55 65.1 °F 54.3 °F 29.99 in South 1.1 mph 9.2 mph 68% 0.00 in 663.00 W/m2
11:56 65.2 °F 54.8 °F 29.99 in SE 6.9 mph 9.2 mph 69% 0.00 in 664.00 W/m2
11:57 65.3 °F 54.5 °F 29.99 in ESE 3.4 mph 6.9 mph 68% 0.00 in 663.00 W/m2
12:01 66.2 °F 55.3 °F 29.99 in South 2.3 mph 11.5 mph 68% 0.00 in 666.00 W/m2
12:02 66.1 °F 54.8 °F 29.99 in SSE 9.2 mph 9.2 mph 67% 0.00 in 666.00 W/m2
12:07 66.1 °F 55.7 °F 29.99 in South 6.9 mph 6.9 mph 69% 0.00 in 670.00 W/m2
12:12 66.8 °F 55.5 °F 29.99 in ESE 3.4 mph 8.1 mph 67% 0.00 in 613.00 W/m2
12:13 66.9 °F 55.2 °F 29.99 in East 5.8 mph 8.1 mph 66% 0.00 in 613.00 W/m2
12:18 67.0 °F 54.4 °F 29.99 in ESE 3.4 mph 10.3 mph 64% 0.00 in 675.00 W/m2
12:23 67.2 °F 55.9 °F 29.99 in ESE 4.6 mph 9.2 mph 67% 0.00 in 633.00 W/m2
12:24 67.4 °F 55.2 °F 29.99 in SE 8.1 mph 12.6 mph 65% 0.00 in 633.00 W/m2
12:28 67.1 °F 55.8 °F 29.98 in ESE 5.8 mph 11.5 mph 67% 0.00 in 686.00 W/m2
12:29 67.2 °F 55.5 °F 29.98 in SE 3.4 mph 11.5 mph 66% 0.00 in 689.00 W/m2
12:30 67.2 °F 55.5 °F 29.98 in SE 2.3 mph 11.5 mph 66% 0.00 in 689.00 W/m2
12:35 67.9 °F 55.7 °F 29.98 in ESE 5.8 mph 11.5 mph 65% 0.00 in 675.00 W/m2
12:39 68.0 °F 56.7 °F 29.98 in SE 2.3 mph 16.1 mph 67% 0.00 in 677.00 W/m2
12:40 68.0 °F 56.7 °F 29.98 in SE 1.1 mph 16.1 mph 67% 0.00 in 677.00 W/m2
12:45 68.2 °F 55.6 °F 29.98 in ESE 4.6 mph 11.5 mph 64% 0.00 in 670.00 W/m2
12:46 68.2 °F 56.0 °F 29.98 in South 5.8 mph 11.5 mph 65% 0.00 in 663.00 W/m2
12:47 68.3 °F 56.9 °F 29.98 in SE 3.4 mph 5.8 mph 67% 0.00 in 656.00 W/m2
12:50 68.8 °F 56.6 °F 29.98 in ENE 5.8 mph 10.3 mph 65% 0.00 in 642.00 W/m2
12:51 68.7 °F 55.6 °F 29.98 in Calm   1.1 mph 63% 0.00 in 654.00 W/m2
12:52 68.6 °F 56.4 °F 29.98 in South 8.1 mph 8.1 mph 65% 0.00 in 684.00 W/m2
12:55 69.1 °F 56.8 °F 29.98 in South 4.6 mph 11.5 mph 65% 0.00 in 679.00 W/m2
12:57 69.2 °F 57.0 °F 29.97 in SE 3.4 mph 9.2 mph 65% 0.00 in 689.00 W/m2
12:58 69.3 °F 57.5 °F 29.97 in SSE 6.9 mph 10.3 mph 66% 0.00 in 694.00 W/m2
13:00 69.4 °F 57.1 °F 29.97 in ESE 4.6 mph 12.6 mph 65% 0.00 in 679.00 W/m2
13:02 69.5 °F 56.8 °F 29.97 in East 9.2 mph 9.2 mph 64% 0.00 in 592.00 W/m2
13:03 69.5 °F 57.2 °F 29.97 in SE 3.4 mph 9.2 mph 65% 0.00 in 446.00 W/m2
13:07 69.6 °F 57.3 °F 29.97 in SE 1.1 mph 11.5 mph 65% 0.00 in 230.00 W/m2
13:09 69.5 °F 56.4 °F 29.97 in SSE 4.6 mph 11.5 mph 63% 0.00 in 151.00 W/m2
13:13 69.5 °F 57.2 °F 29.97 in ESE 5.8 mph 9.2 mph 65% 0.00 in 202.00 W/m2
13:14 69.6 °F 58.2 °F 29.97 in SE 3.4 mph 9.2 mph 67% 0.00 in 202.00 W/m2
13:15 69.7 °F 57.0 °F 29.97 in SE 9.2 mph 9.2 mph 64% 0.00 in 214.00 W/m2
13:18 70.0 °F 58.1 °F 29.97 in ESE 4.6 mph 10.3 mph 66% 0.00 in 214.00 W/m2
13:19 70.3 °F 58.0 °F 29.97 in SE 4.6 mph 10.3 mph 65% 0.00 in 134.00 W/m2
13:21 70.3 °F 57.1 °F 29.96 in ESE 5.8 mph 10.3 mph 63% 0.00 in 160.00 W/m2
13:24 70.1 °F 57.4 °F 29.96 in SE 1.1 mph 13.8 mph 64% 0.00 in 178.00 W/m2
13:26 70.0 °F 56.8 °F 29.96 in ESE 4.6 mph 13.8 mph 63% 0.00 in 178.00 W/m2
13:28 70.0 °F 56.8 °F 29.96 in East 8.1 mph 8.1 mph 63% 0.00 in 290.00 W/m2
13:29 69.9 °F 56.3 °F 29.96 in East 2.3 mph 8.1 mph 62% 0.00 in 390.00 W/m2
13:31 69.7 °F 56.6 °F 29.96 in SE 8.1 mph 8.1 mph 63% 0.00 in 554.00 W/m2
13:33 69.9 °F 57.6 °F 29.96 in SE 8.1 mph 12.6 mph 65% 0.00 in 515.00 W/m2
13:35 70.3 °F 57.6 °F 29.95 in SE 4.6 mph 12.6 mph 64% 0.00 in 598.00 W/m2
13:37 70.6 °F 58.3 °F 29.95 in ESE 5.8 mph 9.2 mph 65% 0.00 in 596.00 W/m2
13:39 70.7 °F 57.5 °F 29.95 in SE 5.8 mph 9.2 mph 63% 0.00 in 596.00 W/m2
13:40 70.7 °F 57.1 °F 29.95 in SSE 1.1 mph 9.2 mph 62% 0.00 in 563.00 W/m2
13:43 70.5 °F 56.9 °F 29.95 in SE 4.6 mph 5.8 mph 62% 0.00 in 176.00 W/m2
13:44 70.6 °F 57.4 °F 29.95 in ESE 1.1 mph 10.3 mph 63% 0.00 in 253.00 W/m2
13:45 70.6 °F 57.4 °F 29.95 in SE 1.1 mph 10.3 mph 63% 0.00 in 253.00 W/m2
13:50 70.5 °F 57.3 °F 29.94 in SE 5.8 mph 16.1 mph 63% 0.00 in 343.00 W/m2
13:55 70.5 °F 57.8 °F 29.94 in NE 1.1 mph 6.9 mph 64% 0.00 in 188.00 W/m2
13:56 70.6 °F 57.8 °F 29.94 in South 11.5 mph 11.5 mph 64% 0.00 in 160.00 W/m2
14:00 71.0 °F 58.2 °F 29.94 in SE 8.1 mph 9.2 mph 64% 0.00 in 156.00 W/m2
14:01 71.0 °F 58.7 °F 29.94 in SE 11.5 mph 11.5 mph 65% 0.00 in 178.00 W/m2
14:02 70.9 °F 58.1 °F 29.94 in ENE 9.2 mph 11.5 mph 64% 0.00 in 176.00 W/m2
14:05 70.8 °F 57.6 °F 29.93 in SE 4.6 mph 11.5 mph 63% 0.00 in 165.00 W/m2
14:07 70.8 °F 57.6 °F 29.93 in ESE 3.4 mph 8.1 mph 63% 0.00 in 151.00 W/m2
14:09 71.0 °F 58.2 °F 29.93 in SSE 1.1 mph 9.2 mph 64% 0.00 in 118.00 W/m2
14:11 71.2 °F 58.4 °F 29.93 in ENE 11.5 mph 11.5 mph 64% 0.00 in 155.00 W/m2
14:13 71.1 °F 57.9 °F 29.93 in ESE 5.8 mph 11.5 mph 63% 0.00 in 156.00 W/m2
14:14 71.0 °F 57.8 °F 29.93 in ENE 4.6 mph 11.5 mph 63% 0.00 in 141.00 W/m2
14:16 71.0 °F 57.8 °F 29.93 in East 5.8 mph 11.5 mph 63% 0.00 in 163.00 W/m2
14:18 71.2 °F 58.8 °F 29.93 in ESE 5.8 mph 10.3 mph 65% 0.00 in 185.00 W/m2
14:21 71.5 °F 57.8 °F 29.92 in ESE 3.4 mph 3.4 mph 62% 0.00 in 151.00 W/m2
14:23 71.5 °F 58.3 °F 29.92 in ESE 9.2 mph 13.8 mph 63% 0.00 in 176.00 W/m2
14:27 71.3 °F 57.6 °F 29.92 in SSE 9.2 mph 9.2 mph 62% 0.00 in 178.00 W/m2
14:28 71.3 °F 58.5 °F 29.92 in ENE 4.6 mph 12.6 mph 64% 0.00 in 172.00 W/m2
14:32 71.6 °F 58.3 °F 29.92 in East 8.1 mph 9.2 mph 63% 0.00 in 183.00 W/m2
14:33 71.6 °F 58.3 °F 29.92 in ESE 9.2 mph 9.2 mph 63% 0.00 in 183.00 W/m2
14:34 71.6 °F 57.9 °F 29.92 in ESE 8.1 mph 10.3 mph 62% 0.00 in 258.00 W/m2
14:37 71.7 °F 58.5 °F 29.92 in ESE 5.8 mph 10.3 mph 63% 0.00 in 218.00 W/m2
14:38 71.7 °F 58.9 °F 29.92 in ESE 2.3 mph 10.3 mph 64% 0.00 in 209.00 W/m2
14:40 71.7 °F 58.9 °F 29.92 in ESE 10.3 mph 10.3 mph 64% 0.00 in 253.00 W/m2
14:42 71.8 °F 59.0 °F 29.92 in ESE 11.5 mph 11.5 mph 64% 0.00 in 244.00 W/m2
14:43 71.8 °F 58.1 °F 29.92 in ESE 4.6 mph 11.5 mph 62% 0.00 in 276.00 W/m2
14:45 72.0 °F 58.7 °F 29.91 in SSE 8.1 mph 12.6 mph 63% 0.00 in 297.00 W/m2
14:52 72.7 °F 58.9 °F 29.91 in ESE 4.6 mph 4.6 mph 62% 0.00 in 496.00 W/m2
14:54 72.8 °F 59.0 °F 29.91 in SE 10.3 mph 12.6 mph 62% 0.00 in 422.00 W/m2
14:57 72.6 °F 58.8 °F 29.91 in SSE 6.9 mph 9.2 mph 62% 0.00 in 355.00 W/m2
14:59 72.4 °F 58.2 °F 29.91 in SSE 4.6 mph 13.8 mph 61% 0.00 in 425.00 W/m2
15:02 72.4 °F 58.7 °F 29.91 in ESE 8.1 mph 12.6 mph 62% 0.00 in 425.00 W/m2
15:04 72.4 °F 58.7 °F 29.91 in SE 5.8 mph 12.6 mph 62% 0.00 in 411.00 W/m2
15:08 72.2 °F 58.5 °F 29.91 in ESE 13.8 mph 13.8 mph 62% 0.00 in 330.00 W/m2
15:11 72.1 °F 58.4 °F 29.90 in ESE 9.2 mph 16.1 mph 62% 0.00 in 218.00 W/m2
15:14 71.9 °F 58.2 °F 29.90 in SE 6.9 mph 17.2 mph 62% 0.00 in 258.00 W/m2
Peotone Weather Data
Compliments of Weather Underground